createdAt,value
2023-02-03T00:00:08.172Z,15.83
2023-02-03T00:02:36.583Z,14.43
2023-02-03T00:05:05.432Z,15.80
2023-02-03T00:07:35.031Z,16.00
2023-02-03T00:10:05.565Z,14.00
2023-02-03T00:12:34.788Z,14.77
2023-02-03T00:15:03.135Z,14.47
2023-02-03T00:17:31.389Z,16.57
2023-02-03T00:19:59.752Z,14.23
2023-02-03T00:22:27.990Z,17.97
2023-02-03T00:24:56.219Z,15.80
2023-02-03T00:27:25.872Z,16.00
2023-02-03T00:29:54.205Z,15.93
2023-02-03T00:32:22.678Z,15.70
2023-02-03T00:34:51.128Z,15.90
2023-02-03T00:37:19.633Z,13.03
2023-02-03T00:39:47.852Z,14.23
2023-02-03T00:42:16.402Z,11.87
2023-02-03T00:44:45.987Z,12.33
2023-02-03T00:47:14.470Z,12.57
2023-02-03T00:49:42.861Z,12.67
2023-02-03T00:52:11.157Z,11.70
2023-02-03T00:54:39.372Z,11.87
2023-02-03T00:57:07.667Z,13.27
2023-02-03T00:59:35.955Z,13.33
2023-02-03T01:02:05.708Z,13.30
2023-02-03T01:04:34.119Z,11.90
2023-02-03T01:07:02.396Z,11.30
2023-02-03T01:09:30.724Z,12.23
2023-02-03T01:11:58.941Z,14.10
2023-02-03T01:14:27.409Z,12.33
2023-02-03T01:16:55.820Z,12.10
2023-02-03T01:19:25.794Z,12.30
2023-02-03T01:21:54.202Z,11.27
2023-02-03T01:24:22.466Z,10.60
2023-02-03T01:26:50.771Z,12.00
2023-02-03T01:29:19.126Z,11.57
2023-02-03T01:31:47.421Z,12.70
2023-02-03T01:34:16.476Z,10.20
2023-02-03T01:36:46.938Z,11.93
2023-02-03T01:39:15.840Z,9.60
2023-02-03T01:41:44.615Z,9.10
2023-02-03T01:44:41.906Z,12.07
2023-02-03T01:47:19.916Z,10.27
2023-02-03T01:49:54.276Z,9.53
2023-02-03T01:52:24.656Z,9.97
2023-02-03T01:54:56.087Z,11.10
2023-02-03T01:57:27.803Z,8.60
2023-02-03T01:59:58.392Z,11.10
2023-02-03T02:02:26.997Z,11.70
2023-02-03T02:04:59.604Z,14.27
2023-02-03T02:07:30.269Z,16.60
2023-02-03T02:09:58.974Z,15.60
2023-02-03T02:12:28.801Z,13.87
2023-02-03T02:14:57.875Z,10.77
2023-02-03T02:17:45.726Z,10.63
2023-02-03T02:20:40.048Z,10.20
2023-02-03T02:23:53.780Z,10.43
2023-02-03T02:26:55.647Z,9.47
2023-02-03T02:29:58.241Z,10.73
2023-02-03T02:32:37.065Z,8.57
2023-02-03T02:35:17.565Z,8.73
2023-02-03T02:37:52.262Z,6.87
2023-02-03T02:40:26.710Z,9.03
2023-02-03T02:43:03.854Z,7.40
2023-02-03T02:45:42.645Z,6.20
2023-02-03T02:48:18.298Z,7.50
2023-02-03T02:50:49.085Z,7.60
2023-02-03T02:53:18.823Z,7.40
2023-02-03T02:55:47.967Z,7.90
2023-02-03T02:58:19.297Z,7.50
2023-02-03T03:00:48.472Z,8.47
2023-02-03T03:03:20.781Z,7.03
2023-02-03T03:05:53.664Z,6.90
2023-02-03T03:08:27.023Z,7.33
2023-02-03T03:10:57.545Z,7.10
2023-02-03T03:13:31.278Z,8.10
2023-02-03T03:16:01.100Z,10.00
2023-02-03T03:18:33.867Z,8.93
2023-02-03T03:21:06.528Z,8.07
2023-02-03T03:23:39.627Z,7.33
2023-02-03T03:26:14.345Z,7.17
2023-02-03T03:28:49.197Z,6.77
2023-02-03T03:31:19.159Z,6.47
2023-02-03T03:33:49.907Z,5.93
2023-02-03T03:36:26.549Z,6.30
2023-02-03T03:39:01.787Z,6.67
2023-02-03T03:41:39.671Z,6.63
2023-02-03T03:44:15.637Z,6.13
2023-02-03T03:46:48.127Z,6.30
2023-02-03T03:49:19.347Z,7.40
2023-02-03T03:51:51.569Z,7.50
2023-02-03T03:54:24.299Z,6.87
2023-02-03T03:56:59.423Z,8.33
2023-02-03T03:59:30.587Z,6.70
2023-02-03T04:02:04.538Z,7.03
2023-02-03T04:04:37.739Z,7.23
2023-02-03T04:07:06.200Z,8.00
2023-02-03T04:09:36.697Z,7.07
2023-02-03T04:12:06.368Z,7.30
2023-02-03T04:14:38.685Z,7.53
2023-02-03T04:17:07.209Z,8.10
2023-02-03T04:19:36.945Z,7.07
2023-02-03T04:22:05.223Z,5.97
2023-02-03T04:24:33.617Z,7.07
2023-02-03T04:27:03.747Z,6.00
2023-02-03T04:29:33.641Z,6.10
2023-02-03T04:32:02.111Z,7.80
2023-02-03T04:34:30.394Z,5.97
2023-02-03T04:37:00.005Z,8.30
2023-02-03T04:39:28.300Z,5.97
2023-02-03T04:41:56.566Z,6.90
2023-02-03T04:44:24.894Z,7.10
2023-02-03T04:46:53.194Z,6.03
2023-02-03T04:49:21.841Z,7.67
2023-02-03T04:51:50.332Z,7.73
2023-02-03T04:54:19.997Z,6.30
2023-02-03T04:56:48.315Z,8.40
2023-02-03T04:59:16.570Z,7.83
2023-02-03T05:01:44.855Z,7.33
2023-02-03T05:04:13.317Z,7.73
2023-02-03T05:06:41.672Z,7.97
2023-02-03T05:09:09.980Z,8.30
2023-02-03T05:11:40.096Z,8.10
2023-02-03T05:14:08.565Z,8.60
2023-02-03T05:16:36.926Z,8.80
2023-02-03T05:19:05.348Z,8.83
2023-02-03T05:21:33.739Z,7.53
2023-02-03T05:24:03.329Z,8.03
2023-02-03T05:26:31.826Z,10.30
2023-02-03T05:29:01.481Z,9.30
2023-02-03T05:31:29.880Z,8.83
2023-02-03T05:33:58.208Z,8.17
2023-02-03T05:36:26.525Z,10.13
2023-02-03T05:38:54.752Z,8.70
2023-02-03T05:41:40.390Z,6.97
2023-02-03T05:44:10.222Z,8.33
2023-02-03T05:46:38.785Z,7.33
2023-02-03T05:49:07.350Z,7.83
2023-02-03T05:51:35.641Z,7.90
2023-02-03T05:54:03.936Z,7.87
2023-02-03T05:56:32.326Z,9.37
2023-02-03T05:59:00.737Z,7.67
2023-02-03T06:01:30.511Z,8.67
2023-02-03T06:03:58.962Z,7.23
2023-02-03T06:06:27.456Z,7.60
2023-02-03T06:08:57.173Z,7.43
2023-02-03T06:11:25.770Z,6.63
2023-02-03T06:13:54.137Z,7.27
2023-02-03T06:16:24.920Z,7.60
2023-02-03T06:18:55.332Z,7.97
2023-02-03T06:21:24.092Z,7.90
2023-02-03T06:23:52.348Z,7.73
2023-02-03T06:26:20.676Z,9.33
2023-02-03T06:28:49.442Z,8.80
2023-02-03T06:31:17.822Z,7.80
2023-02-03T06:33:46.306Z,9.27
2023-02-03T06:36:15.923Z,10.13
2023-02-03T06:38:44.251Z,11.00
2023-02-03T06:41:12.494Z,8.83
2023-02-03T06:43:40.782Z,9.73
2023-02-03T06:46:09.099Z,10.60
2023-02-03T06:48:37.414Z,9.70
2023-02-03T06:51:06.500Z,9.80
2023-02-03T06:53:36.221Z,11.07
2023-02-03T06:56:04.708Z,10.13
2023-02-03T06:58:32.978Z,11.10
2023-02-03T07:01:01.233Z,9.97
2023-02-03T07:03:29.563Z,10.30
2023-02-03T07:05:57.936Z,10.37
2023-02-03T07:08:26.230Z,10.53
2023-02-03T07:10:57.100Z,9.73
2023-02-03T07:13:25.433Z,9.60
2023-02-03T07:15:53.782Z,9.77
2023-02-03T07:18:45.570Z,11.77
2023-02-03T07:21:13.375Z,10.20
2023-02-03T07:23:41.932Z,10.17
2023-02-03T07:26:12.199Z,9.17
2023-02-03T07:28:40.399Z,12.13
2023-02-03T07:31:10.572Z,11.13
2023-02-03T07:33:39.760Z,10.47
2023-02-03T07:36:10.058Z,10.43
2023-02-03T07:38:39.184Z,11.20
2023-02-03T07:41:07.727Z,10.50
2023-02-03T07:43:37.618Z,11.03
2023-02-03T07:46:06.275Z,11.53
2023-02-03T07:48:34.597Z,11.57
2023-02-03T07:51:02.801Z,10.17
2023-02-03T07:53:31.176Z,9.73
2023-02-03T07:56:01.712Z,10.10
2023-02-03T07:58:30.287Z,12.47
2023-02-03T08:01:00.658Z,16.77
2023-02-03T08:03:28.963Z,17.77
2023-02-03T08:05:57.235Z,19.87
2023-02-03T08:08:25.540Z,20.13
2023-02-03T08:10:56.082Z,21.70
2023-02-03T08:13:24.532Z,22.13
2023-02-03T08:15:52.874Z,21.77
2023-02-03T08:18:22.697Z,21.33
2023-02-03T08:20:50.940Z,21.50
2023-02-03T08:23:19.282Z,25.67
2023-02-03T08:25:51.493Z,21.33
2023-02-03T08:28:19.865Z,23.30
2023-02-03T08:30:48.343Z,22.73
2023-02-03T08:33:16.703Z,21.57
2023-02-03T08:35:48.794Z,21.53
2023-02-03T08:38:17.270Z,21.20
2023-02-03T08:40:45.516Z,22.80
2023-02-03T08:43:13.813Z,22.50
2023-02-03T08:45:42.448Z,21.20
2023-02-03T08:48:10.765Z,21.87
2023-02-03T08:50:39.275Z,20.60
2023-02-03T08:53:09.082Z,21.37
2023-02-03T08:55:40.253Z,21.43
2023-02-03T08:58:08.478Z,21.37
2023-02-03T09:00:36.739Z,21.40
2023-02-03T09:03:05.404Z,21.17
2023-02-03T09:05:34.082Z,19.70
2023-02-03T09:08:02.544Z,24.07
2023-02-03T09:10:32.208Z,23.90
2023-02-03T09:13:00.530Z,23.07
2023-02-03T09:15:28.879Z,22.60
2023-02-03T09:17:57.935Z,24.70
2023-02-03T09:20:26.653Z,23.47
2023-02-03T09:22:55.549Z,24.27
2023-02-03T09:25:23.834Z,24.30
2023-02-03T09:27:53.510Z,23.87
2023-02-03T09:30:22.484Z,22.93
2023-02-03T09:32:56.532Z,25.20
2023-02-03T09:35:26.966Z,22.83
2023-02-03T09:37:55.416Z,22.23
2023-02-03T09:40:29.004Z,25.27
2023-02-03T09:43:11.663Z,26.10
2023-02-03T09:45:40.192Z,25.77
2023-02-03T09:48:15.916Z,24.10
2023-02-03T09:50:46.786Z,26.00
2023-02-03T09:53:26.427Z,25.53
2023-02-03T09:55:56.188Z,27.30
2023-02-03T09:58:28.322Z,27.20
2023-02-03T10:01:01.202Z,25.83
2023-02-03T10:03:38.100Z,26.33
2023-02-03T10:06:19.628Z,26.63
2023-02-03T10:09:10.835Z,24.17
2023-02-03T10:11:55.547Z,24.83
2023-02-03T10:14:40.208Z,24.30
2023-02-03T10:17:26.206Z,23.40
2023-02-03T10:19:59.892Z,23.37
2023-02-03T10:22:31.163Z,23.17
2023-02-03T10:25:02.079Z,21.57
2023-02-03T10:27:31.615Z,20.37
2023-02-03T10:30:06.639Z,21.07
2023-02-03T10:32:36.161Z,21.37
2023-02-03T10:35:05.987Z,21.67
2023-02-03T10:37:41.148Z,22.80
2023-02-03T10:40:13.870Z,21.67
2023-02-03T10:43:00.609Z,21.93
2023-02-03T10:45:30.915Z,22.33
2023-02-03T10:48:00.568Z,23.10
2023-02-03T10:50:32.384Z,22.73
2023-02-03T10:53:22.590Z,21.80
2023-02-03T10:55:53.430Z,19.93
2023-02-03T10:58:27.703Z,20.27
2023-02-03T11:00:59.919Z,18.27
2023-02-03T11:03:30.513Z,15.83
2023-02-03T11:06:08.001Z,14.00
2023-02-03T11:08:37.716Z,13.57
2023-02-03T11:11:07.747Z,13.17
2023-02-03T11:13:36.625Z,10.00
2023-02-03T11:16:08.275Z,11.33
2023-02-03T11:18:52.433Z,11.37
2023-02-03T11:21:23.298Z,12.63
2023-02-03T11:23:57.177Z,9.57
2023-02-03T11:26:29.566Z,10.45
2023-02-03T11:29:00.629Z,13.02
2023-02-03T11:31:32.485Z,9.23
2023-02-03T11:34:03.643Z,12.32
2023-02-03T11:36:34.275Z,14.55
2023-02-03T11:39:18.723Z,12.35
2023-02-03T11:41:47.613Z,11.68
2023-02-03T11:44:23.490Z,11.05
2023-02-03T11:46:56.745Z,10.32
2023-02-03T11:50:08.169Z,7.72
2023-02-03T11:53:05.396Z,7.93
2023-02-03T11:55:47.189Z,8.88
2023-02-03T11:58:55.110Z,11.85
2023-02-03T12:01:33.941Z,13.45
2023-02-03T12:04:27.850Z,12.18
2023-02-03T12:07:24.260Z,13.10
2023-02-03T12:10:00.824Z,12.23
2023-02-03T12:12:44.741Z,11.45
2023-02-03T12:15:34.396Z,12.00
2023-02-03T12:18:19.605Z,14.43
2023-02-03T12:21:01.254Z,14.95
2023-02-03T12:23:41.408Z,14.93
2023-02-03T12:26:19.608Z,17.75
2023-02-03T12:28:55.731Z,16.95
2023-02-03T12:31:31.537Z,15.20
2023-02-03T12:34:08.047Z,16.48
2023-02-03T12:36:42.605Z,15.88
2023-02-03T12:39:19.965Z,15.03
2023-02-03T12:41:55.774Z,14.60
2023-02-03T12:44:31.201Z,13.67
2023-02-03T12:47:07.542Z,15.40
2023-02-03T12:49:42.498Z,16.58
2023-02-03T12:52:22.739Z,13.38
2023-02-03T12:54:58.641Z,12.60
2023-02-03T12:57:32.051Z,13.53
2023-02-03T13:00:08.683Z,10.15
2023-02-03T13:02:43.872Z,10.00
2023-02-03T13:05:22.907Z,10.60
2023-02-03T13:07:57.434Z,9.23
2023-02-03T13:10:34.380Z,11.47
2023-02-03T13:13:07.752Z,14.60
2023-02-03T13:15:40.103Z,12.37
2023-02-03T13:18:20.339Z,13.10
2023-02-03T13:20:48.742Z,14.43
2023-02-03T13:23:18.655Z,14.03
2023-02-03T13:26:08.686Z,12.30
2023-02-03T13:28:53.419Z,11.83
2023-02-03T13:31:33.933Z,9.53
2023-02-03T13:34:29.003Z,9.60
2023-02-03T13:37:24.591Z,10.00
2023-02-03T13:40:14.011Z,9.17
2023-02-03T13:42:46.425Z,9.47
2023-02-03T13:45:25.279Z,9.50
2023-02-03T13:47:56.221Z,10.13
2023-02-03T13:50:28.497Z,12.07
2023-02-03T13:53:01.648Z,9.47
2023-02-03T13:55:36.491Z,9.23
2023-02-03T13:58:06.237Z,10.87
2023-02-03T14:01:01.428Z,10.63
2023-02-03T14:03:46.286Z,9.93
2023-02-03T14:06:58.292Z,10.60
2023-02-03T14:09:46.727Z,9.80
2023-02-03T14:12:42.756Z,12.57
2023-02-03T14:15:31.156Z,11.83
2023-02-03T14:18:15.917Z,9.97
2023-02-03T14:21:10.401Z,11.63
2023-02-03T14:23:59.540Z,10.03
2023-02-03T14:26:38.654Z,12.10
2023-02-03T14:29:10.353Z,10.80
2023-02-03T14:31:58.015Z,10.33
2023-02-03T14:34:38.216Z,9.10
2023-02-03T14:37:25.620Z,8.87
2023-02-03T14:40:20.981Z,8.57
2023-02-03T14:43:13.482Z,9.63
2023-02-03T14:45:58.487Z,9.50
2023-02-03T14:48:43.027Z,10.20
2023-02-03T14:51:22.994Z,10.63
2023-02-03T14:54:09.530Z,9.40
2023-02-03T14:57:05.794Z,9.60
2023-02-03T14:59:39.848Z,12.40
2023-02-03T15:02:19.222Z,11.70
2023-02-03T15:04:50.392Z,11.43
2023-02-03T15:07:41.843Z,9.80
2023-02-03T15:10:16.866Z,11.00
2023-02-03T15:12:48.550Z,12.13
2023-02-03T15:15:28.051Z,9.00
2023-02-03T15:17:59.660Z,9.17
2023-02-03T15:20:34.543Z,7.80
2023-02-03T15:23:03.257Z,6.53
2023-02-03T15:25:33.165Z,5.93
2023-02-03T15:28:17.070Z,6.73
2023-02-03T15:30:46.271Z,5.07
2023-02-03T15:33:21.050Z,7.03
2023-02-03T15:35:51.575Z,8.77
2023-02-03T15:38:23.450Z,8.10
2023-02-03T15:40:54.790Z,6.30
2023-02-03T15:43:27.682Z,5.60
2023-02-03T15:46:03.693Z,8.80
2023-02-03T15:48:39.035Z,5.93
2023-02-03T15:51:13.320Z,5.77
2023-02-03T15:53:49.796Z,8.10
2023-02-03T15:56:24.249Z,7.37
2023-02-03T15:58:52.641Z,9.50
2023-02-03T16:01:26.331Z,6.63
2023-02-03T16:03:57.609Z,6.67
2023-02-03T16:06:30.653Z,6.27
2023-02-03T16:08:59.763Z,5.37
2023-02-03T16:11:32.742Z,5.13
2023-02-03T16:14:03.473Z,8.17
2023-02-03T16:16:37.578Z,5.97
2023-02-03T16:19:13.885Z,5.77
2023-02-03T16:21:53.981Z,6.17
2023-02-03T16:24:41.059Z,7.90
2023-02-03T16:27:22.866Z,7.93
2023-02-03T16:30:08.590Z,6.30
2023-02-03T16:32:54.755Z,8.90
2023-02-03T16:35:42.953Z,8.87
2023-02-03T16:38:34.838Z,7.50
2023-02-03T16:41:22.419Z,9.33
2023-02-03T16:44:08.248Z,7.37
2023-02-03T16:46:53.811Z,8.20
2023-02-03T16:49:39.141Z,10.57
2023-02-03T16:52:08.918Z,11.63
2023-02-03T16:54:37.299Z,12.47
2023-02-03T16:57:05.682Z,8.67
2023-02-03T16:59:34.975Z,6.80
2023-02-03T17:02:03.420Z,9.17
2023-02-03T17:04:32.017Z,9.27
2023-02-03T17:07:00.533Z,10.03
2023-02-03T17:09:35.037Z,8.77
2023-02-03T17:12:04.081Z,8.63
2023-02-03T17:14:32.484Z,10.13
2023-02-03T17:17:00.939Z,7.00
2023-02-03T17:19:29.368Z,12.10
2023-02-03T17:21:57.618Z,11.63
2023-02-03T17:24:25.993Z,11.17
2023-02-03T17:26:58.002Z,16.50
2023-02-03T17:29:27.220Z,22.90
2023-02-03T17:31:55.771Z,28.43
2023-02-03T17:34:24.363Z,30.13
2023-02-03T17:36:52.723Z,28.43
2023-02-03T17:55:43.739Z,30.97
2023-02-03T17:58:13.483Z,25.90
2023-02-03T18:00:41.807Z,28.93
2023-02-03T18:03:10.717Z,31.47
2023-02-03T18:05:39.812Z,39.40
2023-02-03T18:08:16.167Z,39.93
2023-02-03T18:10:45.156Z,39.93
2023-02-03T18:13:14.989Z,25.17
2023-02-03T18:15:43.275Z,22.77
2023-02-03T18:18:11.682Z,27.30
2023-02-03T18:20:40.191Z,24.30
2023-02-03T18:23:08.481Z,21.47
2023-02-03T18:25:37.001Z,16.97
2023-02-03T18:28:05.705Z,17.10
2023-02-03T18:30:37.288Z,20.07
2023-02-03T18:33:05.682Z,22.20
2023-02-03T18:35:34.935Z,22.53
2023-02-03T18:38:03.354Z,20.33
2023-02-03T18:40:31.998Z,15.53
2023-02-03T18:43:00.397Z,12.27
2023-02-03T18:45:28.802Z,27.23
2023-02-03T18:47:58.561Z,18.53
2023-02-03T18:50:26.881Z,13.43
2023-02-03T18:52:55.477Z,13.87
2023-02-03T18:55:23.889Z,35.10
2023-02-03T18:57:52.244Z,48.37
2023-02-03T19:00:21.731Z,42.80
2023-02-03T19:02:51.212Z,32.17
2023-02-03T19:05:21.371Z,22.23
2023-02-03T19:07:49.787Z,17.97
2023-02-03T19:10:19.650Z,27.37
2023-02-03T19:12:48.065Z,34.23
2023-02-03T19:15:17.042Z,22.37
2023-02-03T19:17:45.343Z,20.60
2023-02-03T19:20:14.762Z,26.23
2023-02-03T19:22:44.549Z,17.00
2023-02-03T19:25:13.662Z,18.30
2023-02-03T19:27:42.041Z,18.23
2023-02-03T19:30:12.113Z,18.37
2023-02-03T19:32:40.412Z,18.73
2023-02-03T19:35:09.174Z,20.30
2023-02-03T19:37:37.795Z,23.07
2023-02-03T19:40:09.061Z,23.97
2023-02-03T19:42:37.323Z,22.67
2023-02-03T19:45:06.729Z,24.20
2023-02-03T19:47:35.883Z,19.07
2023-02-03T19:50:05.388Z,22.63
2023-02-03T19:52:33.650Z,25.80
2023-02-03T19:55:02.111Z,24.47
2023-02-03T19:57:32.520Z,26.40
2023-02-03T20:00:00.828Z,27.67
2023-02-03T20:02:29.336Z,23.97
2023-02-03T20:04:57.748Z,15.87
2023-02-03T20:07:28.595Z,24.60
2023-02-03T20:09:57.044Z,24.30
2023-02-03T20:12:25.385Z,24.40
2023-02-03T20:14:56.127Z,20.70
2023-02-03T20:17:24.561Z,18.03
2023-02-03T20:19:52.904Z,15.07
2023-02-03T20:22:21.188Z,13.70
2023-02-03T20:24:49.524Z,16.27
2023-02-03T20:27:18.223Z,16.13
2023-02-03T20:29:47.392Z,16.23
2023-02-03T20:32:17.092Z,15.83
2023-02-03T20:34:45.420Z,18.70
2023-02-03T20:37:13.798Z,17.30
2023-02-03T20:39:42.265Z,20.77
2023-02-03T20:42:17.052Z,21.17
2023-02-03T20:44:46.292Z,21.67
2023-02-03T20:47:19.041Z,20.10
2023-02-03T20:49:55.474Z,17.17
2023-02-03T20:52:24.700Z,14.07
2023-02-03T20:54:53.619Z,15.23
2023-02-03T20:57:23.308Z,17.63
2023-02-03T20:59:51.988Z,19.00
2023-02-03T21:02:33.679Z,19.20
2023-02-03T21:05:15.302Z,20.60
2023-02-03T21:07:45.675Z,21.60
2023-02-03T21:10:21.543Z,25.67
2023-02-03T21:12:50.664Z,28.23
2023-02-03T21:15:24.921Z,30.43
2023-02-03T21:17:55.009Z,26.87
2023-02-03T21:20:28.565Z,23.43
2023-02-03T21:22:58.297Z,22.23
2023-02-03T21:25:29.950Z,22.30
2023-02-03T21:28:00.257Z,19.10
2023-02-03T21:30:33.775Z,17.13
2023-02-03T21:33:26.800Z,13.23
2023-02-03T21:35:55.368Z,10.97
2023-02-03T21:38:31.600Z,13.17
2023-02-03T21:41:01.327Z,11.77
2023-02-03T21:43:30.588Z,10.70
2023-02-03T21:45:59.091Z,10.40
2023-02-03T21:48:31.467Z,11.53
2023-02-03T21:51:03.222Z,10.10
2023-02-03T21:53:35.487Z,10.87
2023-02-03T21:56:22.896Z,10.73
2023-02-03T21:58:53.247Z,9.50
2023-02-03T22:01:23.267Z,9.60
2023-02-03T22:03:54.530Z,10.17
2023-02-03T22:06:26.246Z,11.83
2023-02-03T22:08:56.713Z,12.63
2023-02-03T22:11:27.695Z,12.73
2023-02-03T22:13:56.861Z,9.60
2023-02-03T22:16:26.130Z,9.80
2023-02-03T22:18:55.896Z,9.13
2023-02-03T22:21:24.676Z,9.87
2023-02-03T22:23:53.423Z,10.97
2023-02-03T22:26:22.575Z,10.73
2023-02-03T22:28:51.453Z,9.53
2023-02-03T22:31:21.293Z,9.93
2023-02-03T22:33:50.063Z,8.80
2023-02-03T22:36:20.189Z,9.27
2023-02-03T22:38:49.005Z,9.53
2023-02-03T22:41:17.887Z,8.87
2023-02-03T22:43:46.609Z,9.13
2023-02-03T22:46:14.920Z,6.77
2023-02-03T22:48:44.154Z,6.77
2023-02-03T22:51:13.877Z,8.57
2023-02-03T22:53:43.774Z,6.37
2023-02-03T22:56:12.122Z,7.67
2023-02-03T22:58:40.440Z,7.43
2023-02-03T23:01:08.957Z,8.70
2023-02-03T23:03:37.374Z,8.80
2023-02-03T23:06:06.089Z,20.50
2023-02-03T23:08:34.440Z,112.67
2023-02-03T23:11:04.217Z,90.97
2023-02-03T23:13:32.802Z,43.60
2023-02-03T23:16:01.344Z,20.00
2023-02-03T23:18:29.705Z,15.43
2023-02-03T23:20:58.128Z,13.40
2023-02-03T23:23:26.480Z,13.90
2023-02-03T23:25:55.277Z,13.97
2023-02-03T23:28:25.043Z,13.37
2023-02-03T23:30:53.686Z,13.50
2023-02-03T23:33:22.050Z,12.73
2023-02-03T23:35:50.270Z,10.27
2023-02-03T23:38:19.583Z,9.50
2023-02-03T23:40:49.107Z,9.60
2023-02-03T23:43:17.477Z,9.93
2023-02-03T23:45:47.441Z,10.07
2023-02-03T23:48:17.593Z,10.33
2023-02-03T23:50:45.897Z,11.20
2023-02-03T23:53:14.193Z,9.80
2023-02-03T23:55:42.439Z,10.60
2023-02-03T23:58:10.753Z,10.23
